sensor_id;sensor_type;location;lat;lon;timestamp;P1;durP1;ratioP1;P2;durP2;ratioP2
19183;SDS011;9724;51.194;6.856;2023-02-17T00:01:08;18.70;;;9.57;;
19183;SDS011;9724;51.194;6.856;2023-02-17T00:03:35;22.93;;;10.13;;
19183;SDS011;9724;51.194;6.856;2023-02-17T00:06:04;20.20;;;10.20;;
19183;SDS011;9724;51.194;6.856;2023-02-17T00:08:31;17.53;;;10.47;;
19183;SDS011;9724;51.194;6.856;2023-02-17T00:10:57;16.63;;;10.13;;
19183;SDS011;9724;51.194;6.856;2023-02-17T00:13:24;18.03;;;10.57;;
19183;SDS011;9724;51.194;6.856;2023-02-17T00:15:50;20.07;;;10.93;;
19183;SDS011;9724;51.194;6.856;2023-02-17T00:18:17;17.50;;;10.43;;
19183;SDS011;9724;51.194;6.856;2023-02-17T00:20:43;19.70;;;10.90;;
19183;SDS011;9724;51.194;6.856;2023-02-17T00:23:09;15.77;;;9.90;;
19183;SDS011;9724;51.194;6.856;2023-02-17T00:25:36;20.37;;;10.63;;
19183;SDS011;9724;51.194;6.856;2023-02-17T00:28:02;18.23;;;10.33;;
19183;SDS011;9724;51.194;6.856;2023-02-17T00:30:28;21.20;;;9.80;;
19183;SDS011;9724;51.194;6.856;2023-02-17T00:32:54;19.20;;;9.90;;
19183;SDS011;9724;51.194;6.856;2023-02-17T00:35:21;19.47;;;9.87;;
19183;SDS011;9724;51.194;6.856;2023-02-17T00:37:47;14.50;;;9.90;;
19183;SDS011;9724;51.194;6.856;2023-02-17T00:40:14;19.03;;;10.23;;
19183;SDS011;9724;51.194;6.856;2023-02-17T00:42:40;18.30;;;9.40;;
19183;SDS011;9724;51.194;6.856;2023-02-17T00:45:07;19.57;;;9.93;;
19183;SDS011;9724;51.194;6.856;2023-02-17T00:47:33;16.70;;;9.67;;
19183;SDS011;9724;51.194;6.856;2023-02-17T00:49:59;15.90;;;9.43;;
19183;SDS011;9724;51.194;6.856;2023-02-17T00:52:26;17.13;;;9.10;;
19183;SDS011;9724;51.194;6.856;2023-02-17T00:54:52;14.77;;;8.93;;
19183;SDS011;9724;51.194;6.856;2023-02-17T00:57:18;12.97;;;8.67;;
19183;SDS011;9724;51.194;6.856;2023-02-17T00:59:44;17.13;;;9.70;;
19183;SDS011;9724;51.194;6.856;2023-02-17T01:02:11;16.93;;;9.07;;
19183;SDS011;9724;51.194;6.856;2023-02-17T01:04:37;13.03;;;8.67;;
19183;SDS011;9724;51.194;6.856;2023-02-17T01:07:03;15.60;;;9.37;;
19183;SDS011;9724;51.194;6.856;2023-02-17T01:09:30;16.53;;;9.00;;
19183;SDS011;9724;51.194;6.856;2023-02-17T01:11:56;15.77;;;8.87;;
19183;SDS011;9724;51.194;6.856;2023-02-17T01:14:22;17.47;;;9.83;;
19183;SDS011;9724;51.194;6.856;2023-02-17T01:16:48;16.83;;;9.13;;
19183;SDS011;9724;51.194;6.856;2023-02-17T01:19:16;15.60;;;8.97;;
19183;SDS011;9724;51.194;6.856;2023-02-17T01:21:43;14.27;;;9.17;;
19183;SDS011;9724;51.194;6.856;2023-02-17T01:24:10;16.90;;;9.23;;
19183;SDS011;9724;51.194;6.856;2023-02-17T01:26:37;15.53;;;9.30;;
19183;SDS011;9724;51.194;6.856;2023-02-17T01:29:04;14.03;;;8.97;;
19183;SDS011;9724;51.194;6.856;2023-02-17T01:31:33;14.37;;;8.83;;
19183;SDS011;9724;51.194;6.856;2023-02-17T01:34:01;21.60;;;9.33;;
19183;SDS011;9724;51.194;6.856;2023-02-17T01:36:28;15.10;;;9.17;;
19183;SDS011;9724;51.194;6.856;2023-02-17T01:38:54;13.67;;;8.50;;
19183;SDS011;9724;51.194;6.856;2023-02-17T01:41:21;15.23;;;9.43;;
19183;SDS011;9724;51.194;6.856;2023-02-17T01:44:08;15.80;;;9.03;;
19183;SDS011;9724;51.194;6.856;2023-02-17T01:46:36;13.30;;;9.23;;
19183;SDS011;9724;51.194;6.856;2023-02-17T01:49:03;13.10;;;8.83;;
19183;SDS011;9724;51.194;6.856;2023-02-17T01:51:38;13.90;;;8.87;;
19183;SDS011;9724;51.194;6.856;2023-02-17T01:54:05;14.87;;;8.70;;
19183;SDS011;9724;51.194;6.856;2023-02-17T01:56:34;16.23;;;8.70;;
19183;SDS011;9724;51.194;6.856;2023-02-17T01:59:04;13.23;;;8.80;;
19183;SDS011;9724;51.194;6.856;2023-02-17T02:01:35;16.77;;;8.47;;
19183;SDS011;9724;51.194;6.856;2023-02-17T02:04:02;15.07;;;8.43;;
19183;SDS011;9724;51.194;6.856;2023-02-17T02:06:29;13.50;;;8.53;;
19183;SDS011;9724;51.194;6.856;2023-02-17T02:08:58;15.03;;;8.93;;
19183;SDS011;9724;51.194;6.856;2023-02-17T02:11:28;14.70;;;8.07;;
19183;SDS011;9724;51.194;6.856;2023-02-17T02:13:54;15.90;;;8.50;;
19183;SDS011;9724;51.194;6.856;2023-02-17T02:16:24;14.23;;;8.43;;
19183;SDS011;9724;51.194;6.856;2023-02-17T02:18:53;15.33;;;8.80;;
19183;SDS011;9724;51.194;6.856;2023-02-17T02:24:27;12.57;;;8.13;;
19183;SDS011;9724;51.194;6.856;2023-02-17T02:27:20;13.73;;;8.33;;
19183;SDS011;9724;51.194;6.856;2023-02-17T02:32:44;11.67;;;7.47;;
19183;SDS011;9724;51.194;6.856;2023-02-17T02:35:14;12.17;;;7.93;;
19183;SDS011;9724;51.194;6.856;2023-02-17T02:37:44;11.90;;;7.93;;
19183;SDS011;9724;51.194;6.856;2023-02-17T02:40:12;10.43;;;7.80;;
19183;SDS011;9724;51.194;6.856;2023-02-17T02:42:39;13.23;;;8.20;;
19183;SDS011;9724;51.194;6.856;2023-02-17T02:45:06;13.07;;;8.20;;
19183;SDS011;9724;51.194;6.856;2023-02-17T02:47:38;14.33;;;7.83;;
19183;SDS011;9724;51.194;6.856;2023-02-17T02:50:10;9.90;;;7.43;;
19183;SDS011;9724;51.194;6.856;2023-02-17T02:52:38;18.93;;;8.33;;
19183;SDS011;9724;51.194;6.856;2023-02-17T02:55:12;12.33;;;7.53;;
19183;SDS011;9724;51.194;6.856;2023-02-17T02:57:42;11.37;;;7.70;;
19183;SDS011;9724;51.194;6.856;2023-02-17T03:00:14;13.30;;;7.67;;
19183;SDS011;9724;51.194;6.856;2023-02-17T03:02:47;11.73;;;7.83;;
19183;SDS011;9724;51.194;6.856;2023-02-17T03:05:18;12.07;;;7.80;;
19183;SDS011;9724;51.194;6.856;2023-02-17T03:07:52;12.47;;;7.87;;
19183;SDS011;9724;51.194;6.856;2023-02-17T03:10:21;13.83;;;7.50;;
19183;SDS011;9724;51.194;6.856;2023-02-17T03:12:47;12.53;;;7.37;;
19183;SDS011;9724;51.194;6.856;2023-02-17T03:15:15;11.30;;;8.00;;
19183;SDS011;9724;51.194;6.856;2023-02-17T03:17:44;9.97;;;7.87;;
19183;SDS011;9724;51.194;6.856;2023-02-17T03:20:11;12.17;;;7.73;;
19183;SDS011;9724;51.194;6.856;2023-02-17T03:22:39;10.73;;;7.23;;
19183;SDS011;9724;51.194;6.856;2023-02-17T03:25:08;13.83;;;7.60;;
19183;SDS011;9724;51.194;6.856;2023-02-17T03:27:34;14.13;;;8.53;;
19183;SDS011;9724;51.194;6.856;2023-02-17T03:30:00;12.03;;;8.30;;
19183;SDS011;9724;51.194;6.856;2023-02-17T03:32:27;9.70;;;6.93;;
19183;SDS011;9724;51.194;6.856;2023-02-17T03:34:53;9.67;;;7.23;;
19183;SDS011;9724;51.194;6.856;2023-02-17T03:37:19;10.57;;;7.90;;
19183;SDS011;9724;51.194;6.856;2023-02-17T03:39:46;10.33;;;7.90;;
19183;SDS011;9724;51.194;6.856;2023-02-17T03:42:12;9.47;;;7.43;;
19183;SDS011;9724;51.194;6.856;2023-02-17T03:44:38;12.77;;;8.13;;
19183;SDS011;9724;51.194;6.856;2023-02-17T03:47:04;9.70;;;8.00;;
19183;SDS011;9724;51.194;6.856;2023-02-17T03:49:31;13.00;;;7.97;;
19183;SDS011;9724;51.194;6.856;2023-02-17T03:51:57;11.27;;;8.30;;
19183;SDS011;9724;51.194;6.856;2023-02-17T03:54:23;11.13;;;8.00;;
19183;SDS011;9724;51.194;6.856;2023-02-17T03:56:50;10.60;;;8.60;;
19183;SDS011;9724;51.194;6.856;2023-02-17T03:59:17;11.40;;;7.73;;
19183;SDS011;9724;51.194;6.856;2023-02-17T04:01:43;13.17;;;8.80;;
19183;SDS011;9724;51.194;6.856;2023-02-17T04:04:09;14.10;;;8.63;;
19183;SDS011;9724;51.194;6.856;2023-02-17T04:06:35;13.57;;;8.93;;
19183;SDS011;9724;51.194;6.856;2023-02-17T04:09:01;11.80;;;8.97;;
19183;SDS011;9724;51.194;6.856;2023-02-17T04:11:28;9.43;;;7.83;;
19183;SDS011;9724;51.194;6.856;2023-02-17T04:13:55;12.20;;;8.77;;
19183;SDS011;9724;51.194;6.856;2023-02-17T04:16:21;12.23;;;8.50;;
19183;SDS011;9724;51.194;6.856;2023-02-17T04:18:48;12.60;;;8.43;;
19183;SDS011;9724;51.194;6.856;2023-02-17T04:21:14;13.17;;;8.47;;
19183;SDS011;9724;51.194;6.856;2023-02-17T04:23:40;11.33;;;8.00;;
19183;SDS011;9724;51.194;6.856;2023-02-17T04:26:07;10.53;;;7.83;;
19183;SDS011;9724;51.194;6.856;2023-02-17T04:28:34;13.13;;;8.33;;
19183;SDS011;9724;51.194;6.856;2023-02-17T04:31:05;10.13;;;7.50;;
19183;SDS011;9724;51.194;6.856;2023-02-17T04:33:32;12.50;;;7.60;;
19183;SDS011;9724;51.194;6.856;2023-02-17T04:35:58;12.37;;;8.40;;
19183;SDS011;9724;51.194;6.856;2023-02-17T04:38:25;14.00;;;8.17;;
19183;SDS011;9724;51.194;6.856;2023-02-17T04:40:52;13.60;;;8.40;;
19183;SDS011;9724;51.194;6.856;2023-02-17T04:43:19;15.23;;;7.93;;
19183;SDS011;9724;51.194;6.856;2023-02-17T04:45:45;13.03;;;8.17;;
19183;SDS011;9724;51.194;6.856;2023-02-17T04:48:12;10.90;;;8.17;;
19183;SDS011;9724;51.194;6.856;2023-02-17T04:50:38;15.03;;;8.70;;
19183;SDS011;9724;51.194;6.856;2023-02-17T04:53:04;18.87;;;8.37;;
19183;SDS011;9724;51.194;6.856;2023-02-17T04:55:31;12.53;;;8.57;;
19183;SDS011;9724;51.194;6.856;2023-02-17T04:57:57;12.40;;;7.83;;
19183;SDS011;9724;51.194;6.856;2023-02-17T05:00:24;13.27;;;8.23;;
19183;SDS011;9724;51.194;6.856;2023-02-17T05:02:50;10.80;;;7.77;;
19183;SDS011;9724;51.194;6.856;2023-02-17T05:05:17;13.80;;;8.10;;
19183;SDS011;9724;51.194;6.856;2023-02-17T05:07:43;16.03;;;7.60;;
19183;SDS011;9724;51.194;6.856;2023-02-17T05:10:10;14.00;;;7.33;;
19183;SDS011;9724;51.194;6.856;2023-02-17T05:12:36;11.63;;;7.23;;
19183;SDS011;9724;51.194;6.856;2023-02-17T05:15:04;11.10;;;7.60;;
19183;SDS011;9724;51.194;6.856;2023-02-17T05:17:31;14.93;;;8.00;;
19183;SDS011;9724;51.194;6.856;2023-02-17T05:19:58;13.93;;;7.07;;
19183;SDS011;9724;51.194;6.856;2023-02-17T05:22:25;9.53;;;7.00;;
19183;SDS011;9724;51.194;6.856;2023-02-17T05:24:52;8.67;;;7.40;;
19183;SDS011;9724;51.194;6.856;2023-02-17T05:27:18;10.73;;;7.70;;
19183;SDS011;9724;51.194;6.856;2023-02-17T05:29:44;9.97;;;6.60;;
19183;SDS011;9724;51.194;6.856;2023-02-17T05:32:11;7.97;;;6.70;;
19183;SDS011;9724;51.194;6.856;2023-02-17T05:34:37;15.40;;;7.30;;
19183;SDS011;9724;51.194;6.856;2023-02-17T05:37:03;12.23;;;6.77;;
19183;SDS011;9724;51.194;6.856;2023-02-17T05:39:30;11.30;;;7.23;;
19183;SDS011;9724;51.194;6.856;2023-02-17T05:41:56;11.20;;;6.53;;
19183;SDS011;9724;51.194;6.856;2023-02-17T05:44:23;14.17;;;7.50;;
19183;SDS011;9724;51.194;6.856;2023-02-17T05:46:49;14.40;;;6.90;;
19183;SDS011;9724;51.194;6.856;2023-02-17T05:49:15;10.63;;;7.73;;
19183;SDS011;9724;51.194;6.856;2023-02-17T05:51:41;12.43;;;7.50;;
19183;SDS011;9724;51.194;6.856;2023-02-17T05:54:07;15.33;;;7.80;;
19183;SDS011;9724;51.194;6.856;2023-02-17T05:56:34;7.83;;;6.87;;
19183;SDS011;9724;51.194;6.856;2023-02-17T05:59:00;8.97;;;6.90;;
19183;SDS011;9724;51.194;6.856;2023-02-17T06:01:26;8.47;;;6.83;;
19183;SDS011;9724;51.194;6.856;2023-02-17T06:03:53;9.23;;;6.63;;
19183;SDS011;9724;51.194;6.856;2023-02-17T06:06:19;8.20;;;7.10;;
19183;SDS011;9724;51.194;6.856;2023-02-17T06:08:46;17.57;;;8.57;;
19183;SDS011;9724;51.194;6.856;2023-02-17T06:11:12;9.50;;;7.20;;
19183;SDS011;9724;51.194;6.856;2023-02-17T06:13:39;9.30;;;6.80;;
19183;SDS011;9724;51.194;6.856;2023-02-17T06:16:05;10.83;;;6.87;;
19183;SDS011;9724;51.194;6.856;2023-02-17T06:18:32;9.60;;;6.70;;
19183;SDS011;9724;51.194;6.856;2023-02-17T06:20:58;10.13;;;7.67;;
19183;SDS011;9724;51.194;6.856;2023-02-17T06:23:24;12.40;;;6.80;;
19183;SDS011;9724;51.194;6.856;2023-02-17T06:25:51;14.17;;;7.07;;
19183;SDS011;9724;51.194;6.856;2023-02-17T06:28:17;8.60;;;6.90;;
19183;SDS011;9724;51.194;6.856;2023-02-17T06:30:44;11.87;;;7.07;;
19183;SDS011;9724;51.194;6.856;2023-02-17T06:33:10;13.20;;;7.70;;
19183;SDS011;9724;51.194;6.856;2023-02-17T06:35:36;13.97;;;7.43;;
19183;SDS011;9724;51.194;6.856;2023-02-17T06:38:02;14.67;;;7.70;;
19183;SDS011;9724;51.194;6.856;2023-02-17T06:40:29;10.93;;;7.60;;
19183;SDS011;9724;51.194;6.856;2023-02-17T06:42:55;14.07;;;7.33;;
19183;SDS011;9724;51.194;6.856;2023-02-17T06:45:21;10.63;;;7.07;;
19183;SDS011;9724;51.194;6.856;2023-02-17T06:47:48;11.33;;;7.30;;
19183;SDS011;9724;51.194;6.856;2023-02-17T06:50:14;15.17;;;7.93;;
19183;SDS011;9724;51.194;6.856;2023-02-17T06:52:40;11.97;;;7.57;;
19183;SDS011;9724;51.194;6.856;2023-02-17T06:55:07;11.20;;;7.50;;
19183;SDS011;9724;51.194;6.856;2023-02-17T06:57:33;10.77;;;7.10;;
19183;SDS011;9724;51.194;6.856;2023-02-17T06:59:59;10.97;;;7.20;;
19183;SDS011;9724;51.194;6.856;2023-02-17T07:02:26;10.80;;;7.67;;
19183;SDS011;9724;51.194;6.856;2023-02-17T07:04:53;13.57;;;7.30;;
19183;SDS011;9724;51.194;6.856;2023-02-17T07:07:19;12.37;;;7.33;;
19183;SDS011;9724;51.194;6.856;2023-02-17T07:09:45;16.03;;;7.60;;
19183;SDS011;9724;51.194;6.856;2023-02-17T07:12:11;10.47;;;7.50;;
19183;SDS011;9724;51.194;6.856;2023-02-17T07:14:37;11.90;;;7.93;;
19183;SDS011;9724;51.194;6.856;2023-02-17T07:17:03;10.33;;;7.20;;
19183;SDS011;9724;51.194;6.856;2023-02-17T07:19:30;14.40;;;6.87;;
19183;SDS011;9724;51.194;6.856;2023-02-17T07:21:57;9.77;;;7.33;;
19183;SDS011;9724;51.194;6.856;2023-02-17T07:24:23;15.97;;;7.90;;
19183;SDS011;9724;51.194;6.856;2023-02-17T07:26:49;11.53;;;7.70;;
19183;SDS011;9724;51.194;6.856;2023-02-17T07:29:18;13.67;;;7.53;;
19183;SDS011;9724;51.194;6.856;2023-02-17T07:31:44;11.43;;;7.30;;
19183;SDS011;9724;51.194;6.856;2023-02-17T07:34:10;11.00;;;7.20;;
19183;SDS011;9724;51.194;6.856;2023-02-17T07:36:36;13.83;;;7.53;;
19183;SDS011;9724;51.194;6.856;2023-02-17T07:39:03;12.30;;;7.10;;
19183;SDS011;9724;51.194;6.856;2023-02-17T07:41:29;10.83;;;6.63;;
19183;SDS011;9724;51.194;6.856;2023-02-17T07:43:58;8.60;;;6.93;;
19183;SDS011;9724;51.194;6.856;2023-02-17T07:46:24;12.80;;;7.03;;
19183;SDS011;9724;51.194;6.856;2023-02-17T07:48:51;10.70;;;6.67;;
19183;SDS011;9724;51.194;6.856;2023-02-17T07:51:18;10.23;;;6.53;;
19183;SDS011;9724;51.194;6.856;2023-02-17T07:53:45;11.13;;;7.03;;
19183;SDS011;9724;51.194;6.856;2023-02-17T07:56:13;17.77;;;6.20;;
19183;SDS011;9724;51.194;6.856;2023-02-17T07:58:41;14.87;;;6.33;;
19183;SDS011;9724;51.194;6.856;2023-02-17T08:01:09;8.73;;;6.90;;
19183;SDS011;9724;51.194;6.856;2023-02-17T08:03:36;9.93;;;6.70;;
19183;SDS011;9724;51.194;6.856;2023-02-17T08:06:03;12.07;;;6.33;;
19183;SDS011;9724;51.194;6.856;2023-02-17T08:08:30;12.77;;;7.00;;
19183;SDS011;9724;51.194;6.856;2023-02-17T08:11:15;8.73;;;6.67;;
19183;SDS011;9724;51.194;6.856;2023-02-17T08:13:59;9.57;;;6.53;;
19183;SDS011;9724;51.194;6.856;2023-02-17T08:16:26;7.83;;;6.40;;
19183;SDS011;9724;51.194;6.856;2023-02-17T08:18:53;8.07;;;6.63;;
19183;SDS011;9724;51.194;6.856;2023-02-17T08:21:19;9.67;;;6.57;;
19183;SDS011;9724;51.194;6.856;2023-02-17T08:23:46;10.47;;;6.23;;
19183;SDS011;9724;51.194;6.856;2023-02-17T08:26:12;10.27;;;6.70;;
19183;SDS011;9724;51.194;6.856;2023-02-17T08:28:39;11.97;;;6.33;;
19183;SDS011;9724;51.194;6.856;2023-02-17T08:31:05;10.57;;;6.40;;
19183;SDS011;9724;51.194;6.856;2023-02-17T08:33:40;10.87;;;6.17;;
19183;SDS011;9724;51.194;6.856;2023-02-17T08:36:06;16.40;;;7.27;;
19183;SDS011;9724;51.194;6.856;2023-02-17T08:38:33;12.60;;;6.83;;
19183;SDS011;9724;51.194;6.856;2023-02-17T08:40:59;12.33;;;5.87;;
19183;SDS011;9724;51.194;6.856;2023-02-17T08:43:26;13.80;;;6.43;;
19183;SDS011;9724;51.194;6.856;2023-02-17T08:45:53;10.73;;;6.63;;
19183;SDS011;9724;51.194;6.856;2023-02-17T08:48:19;8.80;;;6.30;;
19183;SDS011;9724;51.194;6.856;2023-02-17T08:50:45;9.37;;;5.63;;
19183;SDS011;9724;51.194;6.856;2023-02-17T08:53:12;11.63;;;6.30;;
19183;SDS011;9724;51.194;6.856;2023-02-17T08:55:39;8.33;;;6.03;;
19183;SDS011;9724;51.194;6.856;2023-02-17T08:58:14;10.03;;;6.30;;
19183;SDS011;9724;51.194;6.856;2023-02-17T09:00:41;11.80;;;6.33;;
19183;SDS011;9724;51.194;6.856;2023-02-17T09:03:07;10.47;;;5.77;;
19183;SDS011;9724;51.194;6.856;2023-02-17T09:05:34;13.90;;;5.73;;
19183;SDS011;9724;51.194;6.856;2023-02-17T09:08:00;11.63;;;5.83;;
19183;SDS011;9724;51.194;6.856;2023-02-17T09:10:27;8.77;;;5.90;;
19183;SDS011;9724;51.194;6.856;2023-02-17T09:12:53;8.97;;;5.80;;
19183;SDS011;9724;51.194;6.856;2023-02-17T09:15:19;6.93;;;5.40;;
19183;SDS011;9724;51.194;6.856;2023-02-17T09:17:45;18.10;;;5.60;;
19183;SDS011;9724;51.194;6.856;2023-02-17T09:20:13;6.73;;;5.73;;
19183;SDS011;9724;51.194;6.856;2023-02-17T09:22:50;11.20;;;5.60;;
19183;SDS011;9724;51.194;6.856;2023-02-17T09:25:17;8.20;;;5.57;;
19183;SDS011;9724;51.194;6.856;2023-02-17T09:27:43;8.37;;;5.33;;
19183;SDS011;9724;51.194;6.856;2023-02-17T09:30:10;9.90;;;5.40;;
19183;SDS011;9724;51.194;6.856;2023-02-17T09:32:39;9.73;;;5.00;;
19183;SDS011;9724;51.194;6.856;2023-02-17T09:35:06;5.70;;;5.10;;
19183;SDS011;9724;51.194;6.856;2023-02-17T09:37:33;11.17;;;5.33;;
19183;SDS011;9724;51.194;6.856;2023-02-17T09:39:59;6.40;;;4.73;;
19183;SDS011;9724;51.194;6.856;2023-02-17T09:42:26;9.43;;;5.03;;
19183;SDS011;9724;51.194;6.856;2023-02-17T09:44:55;7.67;;;5.13;;
19183;SDS011;9724;51.194;6.856;2023-02-17T09:47:25;6.70;;;4.90;;
19183;SDS011;9724;51.194;6.856;2023-02-17T09:49:55;5.37;;;4.70;;
19183;SDS011;9724;51.194;6.856;2023-02-17T09:52:25;9.90;;;5.07;;
19183;SDS011;9724;51.194;6.856;2023-02-17T09:54:56;8.90;;;5.07;;
19183;SDS011;9724;51.194;6.856;2023-02-17T09:57:27;5.47;;;4.40;;
19183;SDS011;9724;51.194;6.856;2023-02-17T09:59:56;10.70;;;4.53;;
19183;SDS011;9724;51.194;6.856;2023-02-17T10:02:24;14.47;;;5.30;;
19183;SDS011;9724;51.194;6.856;2023-02-17T10:04:56;8.10;;;5.20;;
19183;SDS011;9724;51.194;6.856;2023-02-17T10:07:27;9.00;;;4.50;;
19183;SDS011;9724;51.194;6.856;2023-02-17T10:09:56;9.97;;;4.20;;
19183;SDS011;9724;51.194;6.856;2023-02-17T10:12:29;13.80;;;4.90;;
19183;SDS011;9724;51.194;6.856;2023-02-17T10:15:02;6.13;;;4.00;;
19183;SDS011;9724;51.194;6.856;2023-02-17T10:17:31;17.73;;;4.40;;
19183;SDS011;9724;51.194;6.856;2023-02-17T10:20:02;16.03;;;4.50;;
19183;SDS011;9724;51.194;6.856;2023-02-17T10:22:30;14.00;;;4.50;;
19183;SDS011;9724;51.194;6.856;2023-02-17T10:24:58;13.90;;;4.60;;
19183;SDS011;9724;51.194;6.856;2023-02-17T10:27:31;9.77;;;4.50;;
19183;SDS011;9724;51.194;6.856;2023-02-17T10:30:14;8.63;;;4.53;;
19183;SDS011;9724;51.194;6.856;2023-02-17T10:32:49;15.90;;;5.20;;
19183;SDS011;9724;51.194;6.856;2023-02-17T10:35:23;13.00;;;4.17;;
19183;SDS011;9724;51.194;6.856;2023-02-17T10:37:56;7.03;;;3.90;;
19183;SDS011;9724;51.194;6.856;2023-02-17T10:40:25;14.50;;;4.20;;
19183;SDS011;9724;51.194;6.856;2023-02-17T10:42:54;15.60;;;4.07;;
19183;SDS011;9724;51.194;6.856;2023-02-17T10:45:25;18.53;;;5.10;;
19183;SDS011;9724;51.194;6.856;2023-02-17T10:47:54;14.23;;;4.20;;
19183;SDS011;9724;51.194;6.856;2023-02-17T10:50:22;8.57;;;3.93;;
19183;SDS011;9724;51.194;6.856;2023-02-17T10:52:49;16.57;;;4.60;;
19183;SDS011;9724;51.194;6.856;2023-02-17T10:55:18;16.33;;;4.03;;
19183;SDS011;9724;51.194;6.856;2023-02-17T10:57:51;19.70;;;4.73;;
19183;SDS011;9724;51.194;6.856;2023-02-17T11:00:19;10.60;;;4.30;;
19183;SDS011;9724;51.194;6.856;2023-02-17T11:02:46;9.90;;;4.53;;
19183;SDS011;9724;51.194;6.856;2023-02-17T11:05:21;9.53;;;3.93;;
19183;SDS011;9724;51.194;6.856;2023-02-17T11:07:52;14.67;;;4.50;;
19183;SDS011;9724;51.194;6.856;2023-02-17T11:10:20;19.00;;;4.67;;
19183;SDS011;9724;51.194;6.856;2023-02-17T11:12:49;8.23;;;3.60;;
19183;SDS011;9724;51.194;6.856;2023-02-17T11:15:17;12.87;;;4.00;;
19183;SDS011;9724;51.194;6.856;2023-02-17T11:17:44;9.23;;;4.17;;
19183;SDS011;9724;51.194;6.856;2023-02-17T11:20:27;7.27;;;4.30;;
19183;SDS011;9724;51.194;6.856;2023-02-17T11:22:59;9.00;;;3.90;;
19183;SDS011;9724;51.194;6.856;2023-02-17T11:25:28;5.57;;;4.10;;
19183;SDS011;9724;51.194;6.856;2023-02-17T11:27:57;4.93;;;4.27;;
19183;SDS011;9724;51.194;6.856;2023-02-17T11:30:25;7.80;;;4.07;;
19183;SDS011;9724;51.194;6.856;2023-02-17T11:32:52;9.10;;;3.67;;
19183;SDS011;9724;51.194;6.856;2023-02-17T11:35:23;8.53;;;3.70;;
19183;SDS011;9724;51.194;6.856;2023-02-17T11:37:59;11.03;;;4.10;;
19183;SDS011;9724;51.194;6.856;2023-02-17T11:40:27;4.27;;;3.60;;
19183;SDS011;9724;51.194;6.856;2023-02-17T11:42:55;8.90;;;3.77;;
19183;SDS011;9724;51.194;6.856;2023-02-17T11:45:23;5.70;;;3.67;;
19183;SDS011;9724;51.194;6.856;2023-02-17T11:47:54;18.87;;;4.13;;
19183;SDS011;9724;51.194;6.856;2023-02-17T11:50:30;4.60;;;3.80;;
19183;SDS011;9724;51.194;6.856;2023-02-17T11:53:19;7.20;;;3.90;;
19183;SDS011;9724;51.194;6.856;2023-02-17T11:55:53;6.23;;;3.90;;
19183;SDS011;9724;51.194;6.856;2023-02-17T11:58:29;4.60;;;3.60;;
19183;SDS011;9724;51.194;6.856;2023-02-17T12:01:06;7.63;;;3.70;;
19183;SDS011;9724;51.194;6.856;2023-02-17T12:03:42;9.83;;;4.07;;
19183;SDS011;9724;51.194;6.856;2023-02-17T12:06:17;7.27;;;4.03;;
19183;SDS011;9724;51.194;6.856;2023-02-17T12:08:50;7.43;;;3.60;;
19183;SDS011;9724;51.194;6.856;2023-02-17T12:11:25;8.03;;;3.80;;
19183;SDS011;9724;51.194;6.856;2023-02-17T12:14:01;5.63;;;3.90;;
19183;SDS011;9724;51.194;6.856;2023-02-17T12:16:39;7.63;;;3.53;;
19183;SDS011;9724;51.194;6.856;2023-02-17T12:19:16;11.47;;;3.90;;
19183;SDS011;9724;51.194;6.856;2023-02-17T12:21:51;4.27;;;3.30;;
19183;SDS011;9724;51.194;6.856;2023-02-17T12:24:25;6.20;;;3.37;;
19183;SDS011;9724;51.194;6.856;2023-02-17T12:27:00;4.93;;;3.33;;
19183;SDS011;9724;51.194;6.856;2023-02-17T12:29:32;8.30;;;3.67;;
19183;SDS011;9724;51.194;6.856;2023-02-17T12:32:19;7.30;;;3.40;;
19183;SDS011;9724;51.194;6.856;2023-02-17T12:34:54;9.30;;;3.53;;
19183;SDS011;9724;51.194;6.856;2023-02-17T12:37:24;6.60;;;3.67;;
19183;SDS011;9724;51.194;6.856;2023-02-17T12:39:52;8.27;;;3.40;;
19183;SDS011;9724;51.194;6.856;2023-02-17T12:42:21;7.30;;;3.07;;
19183;SDS011;9724;51.194;6.856;2023-02-17T12:44:51;3.93;;;3.17;;
19183;SDS011;9724;51.194;6.856;2023-02-17T12:47:22;7.03;;;3.03;;
19183;SDS011;9724;51.194;6.856;2023-02-17T12:49:51;6.77;;;3.20;;
19183;SDS011;9724;51.194;6.856;2023-02-17T12:52:21;5.00;;;3.13;;
19183;SDS011;9724;51.194;6.856;2023-02-17T12:54:51;7.10;;;2.87;;
19183;SDS011;9724;51.194;6.856;2023-02-17T12:57:19;10.10;;;3.30;;
19183;SDS011;9724;51.194;6.856;2023-02-17T12:59:47;6.93;;;2.60;;
19183;SDS011;9724;51.194;6.856;2023-02-17T13:02:16;7.63;;;3.10;;
19183;SDS011;9724;51.194;6.856;2023-02-17T13:04:44;6.20;;;2.80;;
19183;SDS011;9724;51.194;6.856;2023-02-17T13:07:20;3.50;;;2.53;;
19183;SDS011;9724;51.194;6.856;2023-02-17T13:09:54;6.30;;;2.50;;
19183;SDS011;9724;51.194;6.856;2023-02-17T13:12:31;4.73;;;2.53;;
19183;SDS011;9724;51.194;6.856;2023-02-17T13:15:00;6.53;;;2.87;;
19183;SDS011;9724;51.194;6.856;2023-02-17T13:17:29;3.70;;;2.80;;
19183;SDS011;9724;51.194;6.856;2023-02-17T13:20:04;5.07;;;2.77;;
19183;SDS011;9724;51.194;6.856;2023-02-17T13:22:32;4.17;;;2.47;;
19183;SDS011;9724;51.194;6.856;2023-02-17T13:24:59;4.07;;;2.53;;
19183;SDS011;9724;51.194;6.856;2023-02-17T13:27:29;8.10;;;3.03;;
19183;SDS011;9724;51.194;6.856;2023-02-17T13:29:58;5.80;;;2.60;;
19183;SDS011;9724;51.194;6.856;2023-02-17T13:32:26;5.47;;;2.90;;
19183;SDS011;9724;51.194;6.856;2023-02-17T13:34:58;5.67;;;2.70;;
19183;SDS011;9724;51.194;6.856;2023-02-17T13:37:36;4.03;;;3.17;;
19183;SDS011;9724;51.194;6.856;2023-02-17T13:43:06;7.53;;;3.10;;
19183;SDS011;9724;51.194;6.856;2023-02-17T13:45:37;6.20;;;2.83;;
19183;SDS011;9724;51.194;6.856;2023-02-17T13:48:10;3.77;;;3.17;;
19183;SDS011;9724;51.194;6.856;2023-02-17T13:50:42;2.97;;;2.60;;
19183;SDS011;9724;51.194;6.856;2023-02-17T13:53:19;3.23;;;2.80;;
19183;SDS011;9724;51.194;6.856;2023-02-17T13:55:50;3.50;;;2.60;;
19183;SDS011;9724;51.194;6.856;2023-02-17T13:58:20;3.30;;;3.00;;
19183;SDS011;9724;51.194;6.856;2023-02-17T14:00:47;6.93;;;3.00;;
19183;SDS011;9724;51.194;6.856;2023-02-17T14:03:16;5.97;;;3.00;;
19183;SDS011;9724;51.194;6.856;2023-02-17T14:05:47;4.77;;;2.77;;
19183;SDS011;9724;51.194;6.856;2023-02-17T14:08:16;4.63;;;2.90;;
19183;SDS011;9724;51.194;6.856;2023-02-17T14:10:44;5.80;;;2.67;;
19183;SDS011;9724;51.194;6.856;2023-02-17T14:13:10;4.83;;;2.63;;
19183;SDS011;9724;51.194;6.856;2023-02-17T14:15:47;4.00;;;2.87;;
19183;SDS011;9724;51.194;6.856;2023-02-17T14:18:14;3.67;;;2.60;;
19183;SDS011;9724;51.194;6.856;2023-02-17T14:20:41;3.70;;;2.97;;
19183;SDS011;9724;51.194;6.856;2023-02-17T14:23:08;10.83;;;2.63;;
19183;SDS011;9724;51.194;6.856;2023-02-17T14:25:37;2.60;;;2.40;;
19183;SDS011;9724;51.194;6.856;2023-02-17T14:28:15;3.93;;;2.27;;
19183;SDS011;9724;51.194;6.856;2023-02-17T14:30:42;4.43;;;2.20;;
19183;SDS011;9724;51.194;6.856;2023-02-17T14:33:16;1.77;;;1.67;;
19183;SDS011;9724;51.194;6.856;2023-02-17T14:35:48;7.43;;;1.90;;
19183;SDS011;9724;51.194;6.856;2023-02-17T14:38:19;2.27;;;1.43;;
19183;SDS011;9724;51.194;6.856;2023-02-17T14:40:46;10.57;;;1.80;;
19183;SDS011;9724;51.194;6.856;2023-02-17T14:43:12;7.03;;;1.43;;
19183;SDS011;9724;51.194;6.856;2023-02-17T14:45:38;2.00;;;1.50;;
19183;SDS011;9724;51.194;6.856;2023-02-17T14:48:05;1.80;;;1.50;;
19183;SDS011;9724;51.194;6.856;2023-02-17T14:50:31;4.00;;;1.40;;
19183;SDS011;9724;51.194;6.856;2023-02-17T14:52:57;8.23;;;1.80;;
19183;SDS011;9724;51.194;6.856;2023-02-17T14:55:27;7.73;;;1.47;;
19183;SDS011;9724;51.194;6.856;2023-02-17T14:57:56;4.33;;;1.77;;
19183;SDS011;9724;51.194;6.856;2023-02-17T15:00:23;4.10;;;1.50;;
19183;SDS011;9724;51.194;6.856;2023-02-17T15:02:52;9.63;;;1.80;;
19183;SDS011;9724;51.194;6.856;2023-02-17T15:05:18;3.87;;;1.60;;
19183;SDS011;9724;51.194;6.856;2023-02-17T15:07:44;4.47;;;1.67;;
19183;SDS011;9724;51.194;6.856;2023-02-17T15:10:13;3.63;;;1.60;;